Time;durP1;ratioP1;P1;durP2;ratioP2;P2;SDS_P1;SDS_P2;PMS_P1;PMS_P2;Temp;Humidity;BMP_temperature;BMP_pressure;BME280_temperature;BME280_humidity;BME280_pressure;Samples;Min_cycle;Max_cycle;Signal;HPM_P1;HPM_P2
2022/09/16 00:00:56;;;;;;;4.55;1.85;;;;;;;14.36;92.69;100975.81;5068999;28;20028;-53
2022/09/16 00:03:24;;;;;;;6.18;2.13;;;;;;;14.33;92.77;100974.47;5071625;28;20154;-57
2022/09/16 00:05:53;;;;;;;6.82;1.98;;;;;;;14.33;92.79;100979.16;5072725;28;20040;-54
2022/09/16 00:08:21;;;;;;;5.90;1.90;;;;;;;14.34;92.89;100978.88;5071665;28;20048;-55
2022/09/16 00:10:49;;;;;;;4.05;1.75;;;;;;;14.32;93.29;100972.03;5070381;28;20059;-56
2022/09/16 00:13:18;;;;;;;5.72;2.08;;;;;;;14.35;93.06;100972.25;5071579;28;20044;-52
2022/09/16 00:15:48;;;;;;;7.13;2.15;;;;;;;14.38;93.14;100974.44;5057467;28;20048;-52
2022/09/16 00:18:15;;;;;;;5.65;1.92;;;;;;;14.41;93.31;100973.06;5056430;28;20057;-52
2022/09/16 00:20:50;;;;;;;5.15;2.25;;;;;;;14.41;92.94;100967.56;5064943;28;20096;-56
2022/09/16 00:23:19;;;;;;;5.07;1.70;;;;;;;14.47;93.45;100967.19;5064170;28;20045;-52
2022/09/16 00:25:54;;;;;;;6.90;2.05;;;;;;;14.47;93.09;100967.19;5073914;28;20502;-54
2022/09/16 00:28:22;;;;;;;6.97;2.22;;;;;;;14.45;92.70;100963.94;5076569;28;20041;-52
2022/09/16 00:30:50;;;;;;;5.03;2.05;;;;;;;14.42;93.08;100961.78;5062376;28;20044;-52
2022/09/16 00:33:19;;;;;;;7.93;2.20;;;;;;;14.38;93.13;100963.47;5042648;28;20057;-53
2022/09/16 00:35:47;;;;;;;8.20;2.35;;;;;;;14.37;93.16;100967.31;5075610;28;20071;-54
2022/09/16 00:38:15;;;;;;;5.22;2.00;;;;;;;14.37;93.29;100967.31;5076315;28;20402;-53
2022/09/16 00:40:48;;;;;;;4.53;2.15;;;;;;;14.33;93.03;100969.00;5067883;28;20055;-54
2022/09/16 00:43:17;;;;;;;6.10;2.00;;;;;;;14.31;93.30;100963.00;5058718;28;20056;-54
2022/09/16 00:45:49;;;;;;;7.25;2.17;;;;;;;14.32;93.83;100963.81;5058659;28;20041;-58
2022/09/16 00:48:20;;;;;;;10.45;2.35;;;;;;;14.30;94.39;100964.09;5074538;28;20490;-58
2022/09/16 00:50:50;;;;;;;8.18;2.28;;;;;;;14.34;94.09;100967.91;5074220;28;20052;-57
2022/09/16 00:53:48;;;;;;;5.38;1.77;;;;;;;14.28;94.65;100958.09;5075901;28;20052;-55
2022/09/16 00:56:17;;;;;;;7.78;2.75;;;;;;;14.28;95.04;100955.34;5063524;28;20392;-55
2022/09/16 00:58:48;;;;;;;4.65;1.83;;;;;;;14.31;95.25;100962.16;5073603;28;20094;-55
2022/09/16 01:01:15;;;;;;;6.30;2.00;;;;;;;14.33;95.04;100955.28;5068238;28;20037;-56
2022/09/16 01:03:53;;;;;;;10.90;2.38;;;;;;;14.33;95.22;100954.47;5076064;28;20059;-57
2022/09/16 01:06:21;;;;;;;6.47;2.42;;;;;;;14.32;95.09;100953.66;5070113;28;20047;-57
2022/09/16 01:08:49;;;;;;;5.72;2.10;;;;;;;14.31;94.90;100952.03;5070261;28;20491;-53
2022/09/16 01:11:17;;;;;;;6.20;1.85;;;;;;;14.32;94.91;100948.19;5074254;28;20053;-57
2022/09/16 01:13:45;;;;;;;6.15;2.40;;;;;;;14.31;94.65;100952.03;5074748;28;20041;-54
2022/09/16 01:16:28;;;;;;;7.38;2.40;;;;;;;14.33;94.59;100949.00;5053903;28;20086;-53
2022/09/16 01:19:09;;;;;;;5.63;2.22;;;;;;;14.32;94.49;100955.59;5065898;28;20055;-55
2022/09/16 01:21:44;;;;;;;5.63;2.10;;;;;;;14.31;94.57;100951.19;5072046;28;20067;-57
2022/09/16 01:24:30;;;;;;;8.40;2.55;;;;;;;14.28;94.35;100949.88;5072958;28;20041;-57
2022/09/16 01:27:47;;;;;;;9.07;2.40;;;;;;;14.25;94.39;100953.19;5074220;28;20067;-54
2022/09/16 01:30:29;;;;;;;3.88;1.70;;;;;;;14.23;94.09;100944.44;5060418;28;20057;-56
2022/09/16 01:33:12;;;;;;;6.38;2.20;;;;;;;14.22;94.07;100953.78;5065073;28;20037;-55
2022/09/16 01:36:25;;;;;;;8.65;2.30;;;;;;;14.19;93.46;100949.69;5074412;28;20055;-53
2022/09/16 01:39:17;;;;;;;8.02;2.80;;;;;;;14.18;93.44;100953.53;5061817;28;20040;-55
2022/09/16 01:42:05;;;;;;;9.10;2.78;;;;;;;14.20;93.47;100950.50;5065481;28;20049;-53
2022/09/16 01:44:38;;;;;;;9.05;2.50;;;;;;;14.19;93.40;100946.94;5074294;28;20033;-57
2022/09/16 01:47:13;;;;;;;9.80;2.58;;;;;;;14.16;93.02;100946.69;5073828;28;20102;-55
2022/09/16 01:50:25;;;;;;;7.30;2.45;;;;;;;14.14;92.93;100954.38;5074420;28;20044;-57
2022/09/16 01:52:56;;;;;;;10.20;2.58;;;;;;;14.13;93.44;100955.50;5070894;28;20063;-55
2022/09/16 01:55:40;;;;;;;7.25;2.58;;;;;;;14.15;93.66;100947.81;5069396;28;20041;-57
2022/09/16 01:58:16;;;;;;;9.38;2.80;;;;;;;14.14;93.51;100951.66;5067503;28;20392;-52
2022/09/16 02:00:44;;;;;;;9.07;2.72;;;;;;;14.12;93.57;100948.38;5053798;28;20094;-57
2022/09/16 02:03:16;;;;;;;7.80;2.58;;;;;;;14.08;93.73;100953.63;5071766;28;20052;-55
2022/09/16 02:05:57;;;;;;;7.35;2.50;;;;;;;14.06;93.80;100962.13;5070713;28;20045;-54
2022/09/16 02:08:48;;;;;;;8.55;2.50;;;;;;;14.06;94.13;100953.91;5054052;28;20041;-55
2022/09/16 02:11:17;;;;;;;6.75;2.83;;;;;;;14.05;94.35;100957.75;5043795;28;1114924;-53
2022/09/16 02:14:01;;;;;;;9.25;2.88;;;;;;;14.01;94.20;100970.38;5067569;28;20059;-55
2022/09/16 02:16:49;;;;;;;14.95;3.03;;;;;;;13.97;94.42;100960.28;5073412;28;20498;-54
2022/09/16 02:19:27;;;;;;;5.53;2.30;;;;;;;13.97;95.11;100958.38;5048176;28;20438;-53
2022/09/16 02:21:56;;;;;;;6.50;2.47;;;;;;;14.01;95.14;100959.44;5053848;28;20498;-56
2022/09/16 02:24:24;;;;;;;7.97;2.35;;;;;;;14.04;95.37;100958.84;5063012;28;20041;-54
2022/09/16 02:26:55;;;;;;;8.15;2.55;;;;;;;14.04;94.98;100953.38;5073050;28;20052;-55
2022/09/16 02:29:31;;;;;;;10.02;3.05;;;;;;;14.06;94.89;100953.91;5073065;28;20052;-57
2022/09/16 02:32:01;;;;;;;6.57;2.33;;;;;;;14.05;94.33;100952.28;5070475;28;20036;-54
2022/09/16 02:34:47;;;;;;;8.27;2.45;;;;;;;14.06;94.45;100958.56;5072327;28;20056;-54
2022/09/16 02:37:21;;;;;;;7.32;2.67;;;;;;;14.04;94.84;100963.50;5072651;28;20028;-53
2022/09/16 02:39:51;;;;;;;7.38;2.50;;;;;;;14.03;94.84;100962.72;5059685;28;20563;-54
2022/09/16 02:42:19;;;;;;;7.93;2.80;;;;;;;14.01;94.97;100953.16;5073117;28;20041;-54
2022/09/16 02:44:47;;;;;;;7.85;2.75;;;;;;;13.98;94.72;100949.06;5064952;28;20048;-52
2022/09/16 02:47:57;;;;;;;6.80;2.65;;;;;;;13.96;94.71;100950.44;5068257;28;20441;-56
2022/09/16 02:50:39;;;;;;;7.20;2.42;;;;;;;13.95;94.57;100949.63;5065966;28;20113;-56
2022/09/16 02:53:13;;;;;;;7.50;2.63;;;;;;;13.93;94.11;100946.38;5054947;28;20043;-56
2022/09/16 02:56:02;;;;;;;8.10;2.47;;;;;;;13.89;94.00;100945.28;5065104;28;20063;-54
2022/09/16 02:58:30;;;;;;;7.40;2.38;;;;;;;13.90;94.08;100946.09;5057933;28;20051;-55
2022/09/16 03:00:58;;;;;;;13.50;2.88;;;;;;;13.89;93.72;100945.28;5070230;28;20049;-54
2022/09/16 03:03:26;;;;;;;7.63;2.13;;;;;;;13.88;93.38;100943.69;5069539;28;20044;-54
2022/09/16 03:06:08;;;;;;;12.55;2.70;;;;;;;13.85;93.04;100950.53;5073703;28;20051;-56
2022/09/16 03:08:37;;;;;;;5.75;2.30;;;;;;;13.81;92.76;100948.66;5072040;28;20032;-57
2022/09/16 03:11:19;;;;;;;10.88;2.35;;;;;;;13.80;92.73;100941.53;5047510;28;20400;-57
2022/09/16 03:13:57;;;;;;;6.07;2.50;;;;;;;13.80;93.17;100933.31;5067233;28;20119;-55
2022/09/16 03:16:51;;;;;;;5.03;1.95;;;;;;;13.80;92.73;100939.59;5073285;28;20075;-55
2022/09/16 03:19:34;;;;;;;9.60;2.58;;;;;;;13.81;92.04;100937.72;5072090;28;20064;-54
2022/09/16 03:22:19;;;;;;;9.68;2.88;;;;;;;13.76;91.81;100943.22;5072836;28;20044;-53
2022/09/16 03:25:14;;;;;;;6.03;2.45;;;;;;;13.68;92.04;100939.16;5055685;28;20045;-57
2022/09/16 03:28:05;;;;;;;8.02;2.45;;;;;;;13.63;92.54;100942.75;5061661;28;20047;-57
2022/09/16 03:30:47;;;;;;;8.55;2.83;;;;;;;13.59;92.48;100941.72;5072309;28;20081;-58
2022/09/16 03:33:30;;;;;;;9.32;2.70;;;;;;;13.56;92.48;100939.53;5056688;28;20044;-54
2022/09/16 03:35:59;;;;;;;7.18;2.50;;;;;;;13.52;93.12;100943.97;5085278;28;20450;-57
2022/09/16 03:38:27;;;;;;;8.13;2.53;;;;;;;13.50;93.79;100940.69;5056441;28;20044;-54
2022/09/16 03:40:56;;;;;;;9.65;2.75;;;;;;;13.45;93.84;100935.25;5065868;28;20073;-53
2022/09/16 03:43:24;;;;;;;10.15;2.70;;;;;;;13.45;94.19;100943.47;5071969;28;20074;-54
2022/09/16 03:45:51;;;;;;;6.50;2.25;;;;;;;13.45;94.03;100937.97;5069772;28;20043;-54
2022/09/16 03:48:19;;;;;;;10.93;2.70;;;;;;;13.42;94.66;100931.16;5072923;28;20063;-55
2022/09/16 03:50:47;;;;;;;8.07;2.58;;;;;;;13.44;94.74;100933.59;5070527;28;20040;-52
2022/09/16 03:53:15;;;;;;;8.60;2.60;;;;;;;13.46;94.92;100939.59;5066406;28;20490;-57
2022/09/16 03:55:43;;;;;;;9.48;2.90;;;;;;;13.46;95.05;100942.34;5071467;28;20040;-53
2022/09/16 03:58:10;;;;;;;7.25;2.45;;;;;;;13.47;95.33;100935.78;5069219;28;20049;-53
2022/09/16 04:00:38;;;;;;;8.07;2.53;;;;;;;13.49;95.24;100936.28;5071089;28;20399;-54
2022/09/16 04:03:06;;;;;;;8.15;2.40;;;;;;;13.49;94.98;100933.56;5049617;28;20495;-54
2022/09/16 04:05:34;;;;;;;5.78;2.30;;;;;;;13.49;95.43;100930.81;5067978;28;20040;-55
2022/09/16 04:08:02;;;;;;;7.68;2.67;;;;;;;13.49;95.03;100938.22;5071710;28;20502;-55
2022/09/16 04:10:30;;;;;;;7.38;2.55;;;;;;;13.48;95.79;100934.66;5069864;28;20509;-55
2022/09/16 04:12:57;;;;;;;9.95;2.75;;;;;;;13.51;96.07;100939.56;5072513;28;20051;-54
2022/09/16 04:15:25;;;;;;;9.45;2.65;;;;;;;13.55;95.84;100932.44;5071657;28;20049;-53
2022/09/16 04:17:55;;;;;;;6.53;2.40;;;;;;;13.57;95.88;100943.91;5061067;28;20049;-54
2022/09/16 04:20:22;;;;;;;10.55;2.83;;;;;;;13.56;95.86;100942.25;5071362;28;20045;-53
2022/09/16 04:22:50;;;;;;;5.57;2.30;;;;;;;13.53;95.39;100947.50;5071694;28;20049;-54
2022/09/16 04:25:18;;;;;;;6.80;2.20;;;;;;;13.51;95.83;100938.75;5054717;28;20049;-52
2022/09/16 04:27:46;;;;;;;4.88;1.92;;;;;;;13.52;95.88;100941.22;5069912;28;20088;-56
2022/09/16 04:30:14;;;;;;;9.05;2.20;;;;;;;13.52;96.27;100940.41;5070431;28;20400;-53
2022/09/16 04:32:41;;;;;;;7.55;2.53;;;;;;;13.51;95.88;100945.03;5058150;28;20510;-53
2022/09/16 04:35:09;;;;;;;6.13;2.20;;;;;;;13.48;96.24;100953.03;5065793;28;20045;-54
2022/09/16 04:37:37;;;;;;;4.68;1.90;;;;;;;13.43;96.55;100954.69;5070435;28;20044;-54
2022/09/16 04:40:05;;;;;;;6.43;2.28;;;;;;;13.40;96.93;100951.72;5070816;28;20049;-55
2022/09/16 04:42:33;;;;;;;6.82;2.17;;;;;;;13.38;97.24;100949.25;5063524;28;20049;-54
2022/09/16 04:45:01;;;;;;;5.50;2.13;;;;;;;13.38;97.53;100949.25;5071521;28;20543;-54
2022/09/16 04:47:28;;;;;;;7.63;2.20;;;;;;;13.38;97.51;100946.50;5072246;28;20545;-55
2022/09/16 04:49:56;;;;;;;6.32;2.10;;;;;;;13.39;97.45;100936.38;5058423;28;20102;-57
2022/09/16 04:52:24;;;;;;;7.25;2.38;;;;;;;13.36;97.46;100948.69;5065586;28;20044;-52
2022/09/16 04:54:52;;;;;;;7.00;2.05;;;;;;;13.35;97.85;100949.00;5065318;28;20517;-55
2022/09/16 04:57:20;;;;;;;4.35;1.75;;;;;;;13.35;97.96;100938.06;5072029;28;20150;-54
2022/09/16 04:59:48;;;;;;;5.10;1.80;;;;;;;13.38;98.38;100929.28;5074794;28;20037;-53
2022/09/16 05:02:15;;;;;;;6.90;2.22;;;;;;;13.42;98.51;100927.59;5069516;28;20045;-54
2022/09/16 05:04:43;;;;;;;6.88;2.28;;;;;;;13.45;98.48;100928.97;5074407;28;20040;-52
2022/09/16 05:07:11;;;;;;;10.00;2.17;;;;;;;13.45;98.38;100934.44;5066915;28;20041;-54
2022/09/16 05:09:40;;;;;;;4.60;1.95;;;;;;;13.43;98.31;100943.72;5075439;28;20057;-54
2022/09/16 05:12:07;;;;;;;6.20;2.20;;;;;;;13.40;98.01;100935.28;5075648;28;20407;-54
2022/09/16 05:14:35;;;;;;;5.47;1.98;;;;;;;13.40;98.31;100927.88;5063334;28;20045;-55
2022/09/16 05:17:03;;;;;;;4.40;1.88;;;;;;;13.40;98.98;100924.34;5067778;28;20043;-57
2022/09/16 05:19:31;;;;;;;7.28;1.95;;;;;;;13.41;98.56;100928.69;5062493;28;20097;-58
2022/09/16 05:21:59;;;;;;;5.90;1.90;;;;;;;13.42;98.71;100930.31;5074480;28;20052;-57
2022/09/16 05:24:27;;;;;;;5.20;1.75;;;;;;;13.40;98.79;100935.28;5058248;28;20048;-55
2022/09/16 05:26:55;;;;;;;4.72;1.67;;;;;;;13.40;98.72;100938.84;5074469;28;20090;-55
2022/09/16 05:29:22;;;;;;;5.15;1.58;;;;;;;13.45;98.24;100928.97;5071381;28;20043;-56
2022/09/16 05:31:50;;;;;;;3.58;1.55;;;;;;;13.40;98.21;100927.06;5056640;28;20411;-54
2022/09/16 05:34:20;;;;;;;2.35;1.30;;;;;;;13.38;98.18;100929.28;5069247;28;20055;-52
2022/09/16 05:36:52;;;;;;;5.43;1.70;;;;;;;13.37;98.37;100933.09;5075407;28;20451;-56
2022/09/16 05:39:21;;;;;;;4.15;1.58;;;;;;;13.33;98.05;100932.03;5068070;28;20037;-57
2022/09/16 05:41:56;;;;;;;5.60;1.95;;;;;;;13.27;98.46;100939.44;5073381;28;20518;-52
2022/09/16 05:44:25;;;;;;;4.05;1.70;;;;;;;13.27;98.71;100938.59;5070926;28;20041;-53
2022/09/16 05:46:53;;;;;;;6.82;2.08;;;;;;;13.27;98.47;100938.59;5074824;28;20044;-56
2022/09/16 05:49:22;;;;;;;2.70;1.58;;;;;;;13.27;98.35;100944.09;5057949;28;20090;-56
2022/09/16 05:51:50;;;;;;;4.70;1.60;;;;;;;13.28;98.71;100945.75;5071171;28;20054;-56
2022/09/16 05:54:19;;;;;;;4.43;1.35;;;;;;;13.29;98.35;100945.47;5071818;28;20041;-56
2022/09/16 05:56:47;;;;;;;5.00;2.10;;;;;;;13.30;98.32;100947.13;5071800;28;20044;-53
2022/09/16 05:59:16;;;;;;;4.00;1.50;;;;;;;13.29;97.68;100959.16;5073760;28;20041;-54
2022/09/16 06:01:44;;;;;;;5.03;1.75;;;;;;;13.27;97.61;100957.75;5072959;28;20082;-54
2022/09/16 06:04:13;;;;;;;9.13;2.08;;;;;;;13.28;97.72;100963.00;5073823;28;20051;-56
2022/09/16 06:06:42;;;;;;;4.60;1.60;;;;;;;13.26;96.64;100964.34;4717664;28;10000437;-55
2022/09/16 06:09:16;;;;;;;5.72;1.90;;;;;;;13.19;97.04;100967.38;5070482;28;20040;-55
2022/09/16 06:11:46;;;;;;;7.75;1.70;;;;;;;13.15;97.12;100971.78;5070016;28;20048;-57
2022/09/16 06:14:14;;;;;;;5.95;1.60;;;;;;;13.13;96.59;100982.19;5059413;28;20048;-58
2022/09/16 06:16:42;;;;;;;4.32;1.63;;;;;;;13.15;97.00;100963.56;5067896;28;20528;-57
2022/09/16 06:19:13;;;;;;;6.88;1.73;;;;;;;13.28;96.64;100951.25;5065129;28;20052;-57
2022/09/16 06:21:42;;;;;;;6.65;3.30;;;;;;;13.21;96.25;100962.47;5066381;28;20048;-55
2022/09/16 06:24:11;;;;;;;4.28;1.58;;;;;;;13.16;96.04;100955.09;5059423;28;20044;-55
2022/09/16 06:26:41;;;;;;;8.00;1.77;;;;;;;13.16;95.38;100965.22;5068805;28;20078;-55
2022/09/16 06:29:10;;;;;;;3.53;1.33;;;;;;;13.21;95.60;100966.00;5045673;28;20511;-57
2022/09/16 06:31:38;;;;;;;4.38;1.52;;;;;;;13.14;94.67;100973.69;5057902;28;20044;-50
2022/09/16 06:34:07;;;;;;;3.13;1.05;;;;;;;13.12;95.56;100977.81;5063604;28;20401;-53
2022/09/16 06:36:37;;;;;;;6.78;2.38;;;;;;;13.09;96.03;100973.72;5057687;28;20051;-52
2022/09/16 06:39:12;;;;;;;4.00;1.85;;;;;;;13.08;96.49;100974.81;5061725;28;20041;-54
2022/09/16 06:41:40;;;;;;;5.15;1.98;;;;;;;13.08;96.75;100974.81;5056835;28;20040;-52
2022/09/16 06:44:08;;;;;;;7.63;2.63;;;;;;;13.10;97.04;100985.50;5069918;28;20090;-54
2022/09/16 06:46:36;;;;;;;3.30;2.17;;;;;;;13.08;98.23;100980.28;5068251;28;20037;-53
2022/09/16 06:49:04;;;;;;;3.83;1.67;;;;;;;13.06;98.79;100989.88;5067069;28;20499;-49
2022/09/16 06:51:34;;;;;;;5.00;1.90;;;;;;;13.07;98.76;100984.13;5072822;28;20040;-50
2022/09/16 06:54:03;;;;;;;4.82;1.92;;;;;;;13.08;99.33;100979.47;5062091;28;20036;-52
2022/09/16 06:56:34;;;;;;;6.07;2.75;;;;;;;13.09;99.79;100979.19;5068380;28;20487;-53
2022/09/16 06:59:02;;;;;;;7.72;1.92;;;;;;;13.10;99.23;100978.09;5073323;28;20384;-50
2022/09/16 07:01:31;;;;;;;7.20;1.85;;;;;;;13.10;99.50;100980.81;5072398;28;20097;-54
2022/09/16 07:04:04;;;;;;;3.30;1.60;;;;;;;13.10;100.00;100983.56;5067325;28;20093;-54
2022/09/16 07:06:32;;;;;;;6.63;1.88;;;;;;;13.12;99.93;100981.38;5072532;28;20097;-51
2022/09/16 07:09:21;;;;;;;5.10;1.80;;;;;;;13.15;100.00;100986.28;5072517;28;20418;-53
2022/09/16 07:11:48;;;;;;;5.15;1.60;;;;;;;13.13;100.00;100980.28;5062930;28;20040;-50
2022/09/16 07:14:16;;;;;;;4.72;1.80;;;;;;;13.17;100.00;100986.81;5066757;28;20037;-48
2022/09/16 07:16:44;;;;;;;8.35;2.15;;;;;;;13.20;100.00;100978.06;5059144;28;20049;-51
2022/09/16 07:19:11;;;;;;;5.70;1.75;;;;;;;13.24;100.00;100988.44;5073517;28;20048;-54
2022/09/16 07:21:40;;;;;;;4.35;1.65;;;;;;;13.26;99.86;100986.25;5071496;28;20045;-49
2022/09/16 07:24:10;;;;;;;6.70;2.15;;;;;;;13.38;100.00;100987.56;5068875;28;20074;-50
2022/09/16 07:26:39;;;;;;;8.70;2.47;;;;;;;13.59;98.63;100980.03;5070328;28;20049;-51
2022/09/16 07:29:10;;;;;;;9.95;2.53;;;;;;;13.67;98.71;100983.28;5065242;28;20047;-53
2022/09/16 07:31:38;;;;;;;5.20;2.20;;;;;;;13.49;96.90;100988.31;5065867;28;20086;-54
2022/09/16 07:34:07;;;;;;;11.15;3.10;;;;;;;13.40;97.79;100985.38;5058276;28;20040;-56
2022/09/16 07:36:41;;;;;;;11.07;3.65;;;;;;;13.39;97.92;100982.91;5071535;28;20040;-59
2022/09/16 07:39:09;;;;;;;7.30;1.88;;;;;;;13.40;97.70;100990.03;5071082;28;20044;-59
2022/09/16 07:41:39;;;;;;;5.75;2.28;;;;;;;13.46;97.01;100985.31;5066141;28;20032;-59
2022/09/16 07:44:09;;;;;;;14.93;3.67;;;;;;;13.51;97.14;100982.56;5059416;28;20402;-55
2022/09/16 07:46:37;;;;;;;6.72;1.77;;;;;;;13.48;95.63;100992.16;5057806;28;20041;-57
2022/09/16 07:49:06;;;;;;;7.07;2.20;;;;;;;13.45;95.69;100984.50;5053015;28;20106;-57
2022/09/16 07:51:34;;;;;;;6.68;1.95;;;;;;;13.45;96.11;100990.00;5057985;28;20070;-57
2022/09/16 07:54:07;;;;;;;6.10;2.17;;;;;;;13.47;95.46;100993.25;5065122;28;20410;-61
2022/09/16 07:56:37;;;;;;;6.38;2.38;;;;;;;13.50;95.33;100989.97;5054374;28;20032;-55
2022/09/16 07:59:07;;;;;;;5.88;1.90;;;;;;;13.49;95.35;101002.00;5041604;28;20032;-57
2022/09/16 08:01:35;;;;;;;7.15;2.38;;;;;;;13.50;95.66;100987.22;5056872;28;20061;-58
2022/09/16 08:04:09;;;;;;;5.22;1.98;;;;;;;13.58;96.16;100999.47;5062387;28;20062;-55
2022/09/16 08:06:38;;;;;;;5.63;2.33;;;;;;;13.58;96.14;101003.03;5065876;28;20449;-56
2022/09/16 08:09:06;;;;;;;7.63;2.95;;;;;;;13.63;96.13;100991.22;5055220;28;20040;-55
2022/09/16 08:11:54;;;;;;;7.93;2.38;;;;;;;13.67;95.27;101002.44;5060620;28;20078;-56
2022/09/16 08:14:22;;;;;;;9.63;2.40;;;;;;;13.67;95.76;101003.25;5056837;28;20041;-59
2022/09/16 08:16:50;;;;;;;8.48;2.42;;;;;;;13.74;96.50;101002.94;5057695;28;20049;-58
2022/09/16 08:19:19;;;;;;;9.07;2.45;;;;;;;13.79;95.85;101011.13;5055768;28;20045;-57
2022/09/16 08:21:47;;;;;;;8.15;2.35;;;;;;;13.80;96.42;101018.22;5057942;28;20048;-59
2022/09/16 08:24:15;;;;;;;9.18;2.30;;;;;;;13.81;96.57;101017.13;5068494;28;20041;-59
2022/09/16 08:26:43;;;;;;;6.95;2.03;;;;;;;13.78;96.63;101009.47;5083337;28;20042;-57
2022/09/16 08:29:10;;;;;;;10.82;2.58;;;;;;;13.75;95.33;101015.53;5060780;28;20044;-57
2022/09/16 08:31:39;;;;;;;4.82;1.90;;;;;;;13.73;96.23;101012.25;5063476;28;20052;-60
2022/09/16 08:34:07;;;;;;;9.20;3.13;;;;;;;13.76;96.55;101015.25;5071722;28;20048;-55
2022/09/16 08:36:34;;;;;;;7.22;1.90;;;;;;;13.76;96.77;101018.00;5071993;28;20059;-54
2022/09/16 08:39:02;;;;;;;10.98;3.35;;;;;;;13.83;96.25;101017.66;5067738;28;20098;-58
2022/09/16 08:42:07;;;;;;;8.05;3.20;;;;;;;13.84;95.93;101016.56;5075309;28;20044;-56
2022/09/16 08:45:01;;;;;;;3.75;1.83;;;;;;;13.89;92.34;101027.47;5054250;28;20055;-59
2022/09/16 08:47:47;;;;;;;7.88;2.22;;;;;;;13.83;92.17;101017.66;5068851;28;20401;-60
2022/09/16 08:50:18;;;;;;;7.28;2.30;;;;;;;14.00;92.89;101018.09;5063937;28;20130;-56
2022/09/16 08:52:46;;;;;;;5.35;1.88;;;;;;;13.96;91.74;101016.19;5073820;28;20040;-58
2022/09/16 08:55:19;;;;;;;10.50;2.03;;;;;;;13.91;91.08;101019.78;5068851;28;20507;-57
2022/09/16 08:57:54;;;;;;;6.78;2.47;;;;;;;13.92;91.77;101015.13;5071661;28;20045;-58
2022/09/16 09:00:22;;;;;;;7.75;2.03;;;;;;;14.04;92.17;101018.31;5074840;28;20401;-56
2022/09/16 09:02:58;;;;;;;7.80;2.45;;;;;;;14.11;91.51;101013.31;5069724;28;20460;-56
2022/09/16 09:05:35;;;;;;;8.68;2.10;;;;;;;14.07;89.28;101012.28;5071659;28;20045;-57
2022/09/16 09:08:12;;;;;;;7.55;2.28;;;;;;;14.14;88.60;101012.78;5071873;28;20044;-57
2022/09/16 09:11:18;;;;;;;8.75;2.08;;;;;;;14.15;88.41;101016.31;5075445;28;20124;-59
2022/09/16 09:13:48;;;;;;;;;;;;;;;14.15;85.21;101013.59;5063688;28;20050;-58
2022/09/16 09:16:25;;;;;;;5.88;2.05;;;;;;;14.17;84.52;101019.59;5071131;28;19920;-59
2022/09/16 09:19:11;;;;;;;;;;;;;;;14.15;83.02;101024.53;5068479;28;20045;-59
2022/09/16 09:21:46;;;;;;;8.32;2.10;;;;;;;14.19;84.49;101020.09;5071024;28;19927;-57
2022/09/16 09:24:51;;;;;;;10.43;2.33;;;;;;;14.26;83.67;101015.09;5075851;28;20044;-60
2022/09/16 09:27:30;;;;;;;5.47;1.88;;;;;;;14.35;82.43;101007.91;5054595;28;20040;-58
2022/09/16 09:30:15;;;;;;;9.13;2.58;;;;;;;14.38;82.70;101017.47;5063908;28;20033;-60
2022/09/16 09:33:20;;;;;;;7.80;2.20;;;;;;;14.35;85.31;101013.38;5071101;28;20048;-56
2022/09/16 09:36:31;;;;;;;7.53;2.15;;;;;;;14.25;85.29;101047.19;5056647;28;20052;-59
2022/09/16 09:39:49;;;;;;;4.78;1.67;;;;;;;13.63;84.89;101041.31;5051052;28;20575;-59
2022/09/16 09:42:31;;;;;;;5.32;1.80;;;;;;;13.09;90.66;101064.00;5059525;28;20090;-58
2022/09/16 09:45:18;;;;;;;3.53;1.40;;;;;;;12.90;90.04;101043.84;5054102;28;20045;-56
2022/09/16 09:48:16;;;;;;;5.55;1.33;;;;;;;12.91;91.45;101057.22;5072714;28;20101;-58
2022/09/16 09:50:45;;;;;;;4.50;1.63;;;;;;;12.89;92.75;101067.63;5050156;28;20052;-59
2022/09/16 09:53:18;;;;;;;3.08;1.58;;;;;;;12.86;93.75;101067.34;5062750;28;20037;-59
2022/09/16 09:55:46;;;;;;;6.53;1.70;;;;;;;12.84;94.18;101072.28;5068925;28;20503;-59
2022/09/16 09:58:25;;;;;;;9.57;2.53;;;;;;;12.77;94.05;101059.72;5064589;28;20029;-56
2022/09/16 10:00:57;;;;;;;4.43;1.52;;;;;;;12.77;94.47;101046.06;5067245;28;20494;-56
2022/09/16 10:03:27;;;;;;;5.65;1.70;;;;;;;12.85;95.46;101057.53;5074054;28;20521;-57
2022/09/16 10:05:54;;;;;;;3.55;1.48;;;;;;;12.94;93.93;101055.84;5072754;28;20041;-58
2022/09/16 10:08:24;;;;;;;3.70;1.23;;;;;;;12.93;94.48;101046.00;5070349;28;20033;-57
2022/09/16 10:10:58;;;;;;;4.03;1.50;;;;;;;12.93;94.38;101054.22;5072933;28;20045;-56
2022/09/16 10:13:28;;;;;;;7.95;1.83;;;;;;;12.86;94.73;101054.50;5062922;28;20033;-56
2022/09/16 10:16:13;;;;;;;5.35;1.52;;;;;;;12.83;94.48;101059.72;5070951;28;20468;-57
2022/09/16 10:18:42;;;;;;;3.20;1.30;;;;;;;12.88;95.17;101041.38;5066552;28;20039;-56
2022/09/16 10:21:13;;;;;;;7.40;2.15;;;;;;;12.93;95.76;101038.63;5072942;28;20055;-56
2022/09/16 10:23:51;;;;;;;4.60;1.50;;;;;;;13.00;96.01;101035.59;4371109;28;9999913;-57
2022/09/16 10:26:22;;;;;;;4.78;1.77;;;;;;;12.94;96.13;101044.91;5070622;28;20036;-58
2022/09/16 10:29:03;;;;;;;5.13;2.10;;;;;;;12.98;96.60;101045.97;5066544;28;20048;-57
2022/09/16 10:31:36;;;;;;;9.63;1.95;;;;;;;13.02;95.37;101040.78;5068321;28;20048;-57
2022/09/16 10:34:12;;;;;;;6.13;1.98;;;;;;;13.04;95.89;101031.22;5066291;28;20044;-57
2022/09/16 10:36:40;;;;;;;5.00;1.92;;;;;;;13.13;96.27;101036.91;5053002;28;20498;-58
2022/09/16 10:39:25;;;;;;;6.05;1.60;;;;;;;13.25;97.30;101040.13;5068511;28;20048;-54
2022/09/16 10:41:53;;;;;;;6.97;1.80;;;;;;;13.35;97.04;101039.31;5053358;28;20070;-56
2022/09/16 10:44:22;;;;;;;6.35;2.10;;;;;;;13.43;97.34;101027.78;5069819;28;20139;-57
2022/09/16 10:47:17;;;;;;;7.07;1.83;;;;;;;13.48;97.86;101032.41;5058893;28;20045;-58
2022/09/16 10:49:49;;;;;;;26.02;12.73;;;;;;;13.57;98.22;101028.78;5067774;28;20045;-55
2022/09/16 10:52:22;;;;;;;6.57;2.40;;;;;;;13.70;98.17;101026.50;5071045;28;20426;-56
2022/09/16 10:54:51;;;;;;;6.10;2.00;;;;;;;13.69;97.12;101019.41;5069130;28;20041;-57
2022/09/16 10:57:24;;;;;;;7.22;2.10;;;;;;;13.75;95.79;101021.00;5069763;28;20445;-56
2022/09/16 11:00:19;;;;;;;10.68;4.53;;;;;;;13.79;95.99;101022.88;5070835;28;20101;-56
2022/09/16 11:03:12;;;;;;;6.97;2.25;;;;;;;13.86;96.06;101022.56;5069784;28;20048;-56
2022/09/16 11:05:56;;;;;;;7.22;1.90;;;;;;;13.86;88.41;101025.31;5048841;28;20045;-59
2022/09/16 11:09:05;;;;;;;3.78;1.80;;;;;;;13.94;84.24;101029.34;5040212;28;20090;-55
2022/09/16 11:12:01;;;;;;;6.80;1.90;;;;;;;13.94;81.19;101024.69;5056023;28;20058;-56
2022/09/16 11:14:48;;;;;;;5.25;1.67;;;;;;;13.98;81.49;101019.47;5068291;28;20040;-55
2022/09/16 11:17:25;;;;;;;3.30;1.70;;;;;;;14.01;77.53;101025.19;5053995;28;20041;-55
2022/09/16 11:20:41;;;;;;;4.43;2.05;;;;;;;14.05;76.61;101031.75;5064693;28;20037;-54
2022/09/16 11:23:18;;;;;;;5.72;2.08;;;;;;;14.12;76.80;101019.63;5059085;28;20503;-56
2022/09/16 11:26:00;;;;;;;7.05;2.22;;;;;;;14.16;78.16;101021.50;5060143;28;20040;-57
2022/09/16 11:28:27;;;;;;;7.53;2.05;;;;;;;14.27;76.29;101033.19;5055279;28;20047;-56
2022/09/16 11:31:18;;;;;;;4.00;1.52;;;;;;;14.32;74.54;101030.41;5062311;28;20070;-55
2022/09/16 11:33:49;;;;;;;7.43;2.33;;;;;;;14.38;74.64;101029.28;5060658;28;20499;-55
2022/09/16 11:36:35;;;;;;;4.35;1.75;;;;;;;14.40;72.50;101043.47;5064329;28;20040;-54
2022/09/16 11:39:02;;;;;;;;;;;;;;;14.42;72.64;101040.47;5069393;28;20118;-55
2022/09/16 11:41:34;;;;;;;5.80;1.88;;;;;;;14.35;73.24;101057.25;5062129;28;19924;-55
2022/09/16 11:44:30;;;;;;;6.47;1.85;;;;;;;14.20;72.30;101076.56;5051963;28;20041;-55
2022/09/16 11:47:16;;;;;;;2.25;1.45;;;;;;;13.67;75.80;101095.53;5052403;28;20583;-55
2022/09/16 11:50:06;;;;;;;5.18;1.70;;;;;;;13.33;83.94;101118.13;5065187;28;20040;-59
2022/09/16 11:52:57;;;;;;;5.95;1.70;;;;;;;12.99;86.16;101099.59;5057031;28;20033;-55
2022/09/16 11:55:46;;;;;;;5.32;1.73;;;;;;;12.87;88.67;101099.06;5056597;28;20052;-58
2022/09/16 11:58:24;;;;;;;6.07;2.10;;;;;;;12.68;89.45;101093.38;5059278;28;20051;-54